Time;durP1;ratioP1;P1;durP2;ratioP2;P2;SDS_P1;SDS_P2;PMS_P1;PMS_P2;Temp;Humidity;BMP_temperature;BMP_pressure;BME280_temperature;BME280_humidity;BME280_pressure;Samples;Min_cycle;Max_cycle;Signal;HPM_P1;HPM_P2
2021/08/24 00:02:25;;;;;;;4.03;3.72;;;;;;;14.51;88.80;100213.56;2136458;80;21891;-86
2021/08/24 00:05:31;;;;;;;4.47;3.58;;;;;;;14.48;89.15;100215.28;2170132;80;21483;-87
2021/08/24 00:08:35;;;;;;;6.87;3.70;;;;;;;14.45;89.23;100220.48;2126698;81;21030;-87
2021/08/24 00:11:36;;;;;;;5.15;3.83;;;;;;;14.42;89.49;100218.20;2127398;82;21017;-88
2021/08/24 00:14:37;;;;;;;8.23;4.17;;;;;;;14.42;89.37;100220.05;2148236;80;21109;-88
2021/08/24 00:17:38;;;;;;;3.83;3.30;;;;;;;14.45;89.37;100221.00;2147021;80;21996;-88
2021/08/24 00:20:42;;;;;;;3.70;3.35;;;;;;;14.48;89.55;100214.77;2143135;80;21069;-86
2021/08/24 00:23:43;;;;;;;4.67;3.52;;;;;;;14.46;89.43;100211.45;2194071;80;21049;-88
2021/08/24 00:26:45;;;;;;;3.72;3.30;;;;;;;14.44;89.31;100209.98;2176660;80;21037;-87
2021/08/24 00:29:46;;;;;;;3.72;3.42;;;;;;;14.45;89.41;100210.33;2172946;80;20946;-87
2021/08/24 00:32:47;;;;;;;3.72;3.40;;;;;;;14.42;89.37;100208.86;2160336;81;21026;-86
2021/08/24 00:35:48;;;;;;;3.37;2.77;;;;;;;14.43;89.61;100208.34;2137701;81;21010;-88
2021/08/24 00:38:49;;;;;;;2.95;2.67;;;;;;;14.42;90.04;100208.03;2142757;80;21026;-87
2021/08/24 00:41:51;;;;;;;4.37;3.40;;;;;;;14.41;90.72;100215.70;2190065;80;21483;-86
2021/08/24 00:44:52;;;;;;;4.12;3.72;;;;;;;14.41;91.24;100210.37;2160506;80;21058;-87
2021/08/24 00:47:54;;;;;;;5.37;3.67;;;;;;;14.38;91.62;100216.09;2124537;82;21027;-89
2021/08/24 00:50:57;;;;;;;4.70;3.98;;;;;;;14.38;91.86;100217.42;2131504;82;21561;-87
2021/08/24 00:53:58;;;;;;;4.28;3.85;;;;;;;14.37;91.86;100214.45;2134634;82;21009;-86
2021/08/24 00:57:05;;;;;;;4.28;3.87;;;;;;;14.36;92.07;100224.30;2154448;81;21052;-86
2021/08/24 01:00:07;;;;;;;4.00;3.60;;;;;;;14.38;91.77;100218.75;2184459;80;21011;-87
2021/08/24 01:03:13;;;;;;;4.12;3.62;;;;;;;14.35;91.82;100224.78;2142173;81;21041;-87
2021/08/24 01:06:26;;;;;;;3.52;3.22;;;;;;;14.35;91.59;100221.29;2174116;80;21015;-87
2021/08/24 01:09:48;;;;;;;3.45;3.05;;;;;;;14.32;91.64;100223.83;2173018;79;21037;-88
2021/08/24 01:13:00;;;;;;;3.87;3.35;;;;;;;14.34;92.39;100227.14;2144524;81;21054;-87
2021/08/24 01:16:28;;;;;;;3.80;3.50;;;;;;;14.35;92.69;100219.95;2163612;81;21022;-87
2021/08/24 01:19:53;;;;;;;3.70;3.30;;;;;;;14.35;93.09;100233.30;2166242;81;21013;-87
2021/08/24 01:23:31;;;;;;;4.65;3.98;;;;;;;14.38;93.50;100238.78;2145020;81;21565;-88
2021/08/24 01:26:43;;;;;;;5.25;4.17;;;;;;;14.42;93.84;100238.73;2160373;81;20990;-88
2021/08/24 01:30:22;;;;;;;5.12;4.65;;;;;;;14.47;93.38;100236.30;2165492;79;21085;-88
2021/08/24 01:33:29;;;;;;;7.78;4.75;;;;;;;14.48;93.19;100236.13;2126827;79;21050;-87
2021/08/24 01:37:04;;;;;;;4.62;4.15;;;;;;;14.49;93.09;100232.42;2164967;81;20987;-87
2021/08/24 01:40:20;;;;;;;5.60;4.65;;;;;;;14.50;93.34;100245.27;2146158;81;20958;-88
2021/08/24 01:43:29;;;;;;;4.55;4.15;;;;;;;14.48;93.41;100238.80;2150372;81;20961;-86
2021/08/24 01:46:59;;;;;;;6.17;5.58;;;;;;;14.47;93.50;100245.16;2169889;80;21012;-86
2021/08/24 01:50:27;;;;;;;4.92;4.37;;;;;;;14.49;93.35;100251.63;2162139;80;20981;-86
2021/08/24 01:53:33;;;;;;;5.92;5.33;;;;;;;14.49;92.92;100259.12;2176262;80;21047;-89
2021/08/24 01:56:38;;;;;;;5.17;4.67;;;;;;;14.50;93.24;100265.29;2177293;79;21030;-88
2021/08/24 01:59:50;;;;;;;5.40;4.90;;;;;;;14.50;93.20;100270.14;2179020;80;21061;-87
2021/08/24 02:03:05;;;;;;;5.87;5.28;;;;;;;14.51;93.09;100274.97;2182005;80;21007;-88
2021/08/24 02:06:14;;;;;;;4.87;4.42;;;;;;;14.52;93.14;100276.64;2175328;80;21081;-87
2021/08/24 02:09:21;;;;;;;5.30;4.80;;;;;;;14.51;93.30;100276.30;2170274;80;21480;-86
2021/08/24 02:12:25;;;;;;;5.12;4.65;;;;;;;14.49;93.19;100272.98;2175723;80;20982;-87
2021/08/24 02:15:39;;;;;;;10.75;5.33;;;;;;;14.48;92.98;100278.84;2165846;80;21003;-87
2021/08/24 02:18:45;;;;;;;5.25;4.67;;;;;;;14.47;92.74;100281.20;2169819;80;21578;-87
2021/08/24 02:21:55;;;;;;;4.03;3.60;;;;;;;14.44;92.46;100282.89;2167730;80;21014;-87
2021/08/24 02:25:13;;;;;;;4.45;4.05;;;;;;;14.37;91.99;100287.34;2180349;79;21117;-85
2021/08/24 02:28:20;;;;;;;4.47;3.90;;;;;;;14.30;91.99;100291.75;2165266;80;21018;-87
2021/08/24 02:31:27;;;;;;;7.00;3.83;;;;;;;14.21;92.29;100303.05;2170139;79;21093;-87
2021/08/24 02:34:57;;;;;;;4.25;3.85;;;;;;;14.17;92.36;100317.78;2180666;80;20971;-87
2021/08/24 02:38:07;;;;;;;4.17;3.77;;;;;;;14.12;92.75;100308.17;2182878;80;21513;-87
2021/08/24 02:41:21;;;;;;;4.22;3.67;;;;;;;14.09;93.10;100309.88;2179766;80;21028;-87
2021/08/24 02:44:28;;;;;;;5.03;4.10;;;;;;;14.07;93.19;100316.72;2176507;80;21101;-86
2021/08/24 02:47:30;;;;;;;5.87;4.42;;;;;;;14.09;93.68;100315.21;2096469;81;21590;-87
2021/08/24 02:50:32;;;;;;;5.20;4.70;;;;;;;14.12;93.75;100317.50;2130800;82;21044;-86
2021/08/24 02:53:36;;;;;;;6.97;4.62;;;;;;;14.16;93.99;100308.10;2151000;82;20959;-88
2021/08/24 02:56:37;;;;;;;5.33;4.80;;;;;;;14.20;93.71;100317.41;2143849;82;21450;-86
2021/08/24 02:59:39;;;;;;;6.03;5.17;;;;;;;14.24;93.31;100316.52;2143848;82;21053;-86
2021/08/24 03:02:40;;;;;;;5.58;4.97;;;;;;;14.27;93.08;100322.31;2134104;82;21065;-87
2021/08/24 03:05:41;;;;;;;5.58;4.72;;;;;;;14.27;93.05;100322.31;2122104;82;21018;-85
2021/08/24 03:08:43;;;;;;;5.58;4.67;;;;;;;14.25;93.03;100323.02;2148499;82;21505;-86
2021/08/24 03:11:58;;;;;;;7.35;5.33;;;;;;;14.23;92.96;100334.38;2110096;82;21078;-86
2021/08/24 03:15:17;;;;;;;6.65;4.55;;;;;;;14.20;93.05;100338.76;2135985;82;21494;-87
2021/08/24 03:18:35;;;;;;;5.87;4.58;;;;;;;14.18;92.64;100335.44;2143773;82;21032;-86
2021/08/24 03:21:39;;;;;;;5.97;4.75;;;;;;;14.17;92.32;100337.80;2143762;82;21010;-86
2021/08/24 03:24:41;;;;;;;6.00;4.42;;;;;;;14.15;92.23;100326.98;2123593;83;21052;-86
2021/08/24 03:27:46;;;;;;;8.60;4.35;;;;;;;14.14;92.25;100330.16;2108413;83;21551;-87
2021/08/24 03:30:49;;;;;;;4.80;4.20;;;;;;;14.12;92.39;100330.84;2146583;82;21067;-87
2021/08/24 03:33:51;;;;;;;4.85;4.08;;;;;;;14.11;92.42;100332.69;2131069;83;21085;-87
2021/08/24 03:36:53;;;;;;;5.85;4.85;;;;;;;14.10;92.44;100344.36;2132076;82;21013;-88
2021/08/24 03:39:54;;;;;;;5.50;4.95;;;;;;;14.11;92.48;100343.37;2145415;82;21000;-87
2021/08/24 03:42:56;;;;;;;8.08;5.60;;;;;;;14.13;92.65;100351.17;2131472;82;21024;-88
2021/08/24 03:45:57;;;;;;;7.42;5.65;;;;;;;14.13;92.77;100359.17;2140011;81;21040;-87
2021/08/24 03:48:58;;;;;;;6.10;5.50;;;;;;;14.11;92.86;100360.71;2152777;81;21513;-87
2021/08/24 03:51:59;;;;;;;7.60;6.35;;;;;;;14.12;92.75;100364.20;2144741;82;21401;-88
2021/08/24 03:55:00;;;;;;;7.60;6.80;;;;;;;14.08;92.94;100372.27;2147521;80;21034;-86
2021/08/24 03:58:01;;;;;;;6.87;6.17;;;;;;;14.06;92.99;100380.95;2150137;81;20989;-86
2021/08/24 04:01:03;;;;;;;7.35;6.45;;;;;;;14.04;93.08;100392.30;2155028;81;21009;-87
2021/08/24 04:04:04;;;;;;;7.62;6.25;;;;;;;14.01;93.29;100386.00;2151171;81;21097;-86
2021/08/24 04:07:05;;;;;;;7.72;6.92;;;;;;;13.99;93.46;100388.02;2140925;82;20984;-86
2021/08/24 04:10:07;;;;;;;8.38;6.83;;;;;;;13.96;93.47;100397.72;2148383;81;21045;-87
2021/08/24 04:13:08;;;;;;;8.63;7.17;;;;;;;13.93;93.69;100398.91;2143793;81;21027;-86
2021/08/24 04:16:12;;;;;;;8.03;7.12;;;;;;;13.90;93.84;100412.09;2160970;81;21536;-86
2021/08/24 04:19:15;;;;;;;8.15;7.30;;;;;;;13.88;93.90;100417.28;2144865;81;21054;-86
2021/08/24 04:22:21;;;;;;;8.40;7.10;;;;;;;13.88;93.70;100423.95;2147282;82;21030;-87
2021/08/24 04:25:22;;;;;;;10.63;7.90;;;;;;;13.86;93.95;100426.00;2140073;81;20956;-86
2021/08/24 04:28:24;;;;;;;9.55;7.53;;;;;;;13.84;93.89;100426.67;2140037;82;21049;-87
2021/08/24 04:31:25;;;;;;;10.00;7.20;;;;;;;13.84;94.03;100430.67;2143217;82;21470;-86
2021/08/24 04:34:26;;;;;;;8.95;7.80;;;;;;;13.85;94.01;100436.32;2148422;81;21477;-86
2021/08/24 04:37:27;;;;;;;10.40;7.17;;;;;;;13.85;93.82;100446.98;2148881;81;21556;-86
2021/08/24 04:40:31;;;;;;;9.35;7.45;;;;;;;13.84;93.70;100451.50;2155238;82;20959;-86
2021/08/24 04:43:32;;;;;;;9.63;7.35;;;;;;;13.84;93.70;100464.84;2147510;81;20973;-87
2021/08/24 04:46:33;;;;;;;9.85;8.05;;;;;;;13.85;93.49;100468.33;2164575;80;21003;-86
2021/08/24 04:49:34;;;;;;;10.50;7.47;;;;;;;13.84;93.50;100476.84;2156359;80;21098;-88
2021/08/24 04:52:36;;;;;;;11.18;8.00;;;;;;;13.83;93.36;100471.19;2180664;80;21014;-87
2021/08/24 04:55:37;;;;;;;10.08;7.53;;;;;;;13.83;93.29;100479.19;2139852;81;21045;-85
2021/08/24 04:58:38;;;;;;;10.13;8.20;;;;;;;13.85;93.14;100485.19;2145587;82;20951;-87
2021/08/24 05:01:39;;;;;;;9.58;7.47;;;;;;;13.87;93.07;100487.15;2150078;81;21035;-87
2021/08/24 05:04:41;;;;;;;11.05;7.37;;;;;;;13.88;93.00;100483.49;2154151;81;20995;-86
2021/08/24 05:07:42;;;;;;;8.18;7.35;;;;;;;13.89;92.83;100489.65;2166006;80;21006;-86
2021/08/24 05:10:43;;;;;;;8.30;6.95;;;;;;;13.92;92.76;100495.13;2153030;81;21027;-86
2021/08/24 05:13:45;;;;;;;9.30;7.65;;;;;;;13.92;92.56;100503.14;2144877;80;21056;-87
2021/08/24 05:16:46;;;;;;;8.60;7.53;;;;;;;13.95;92.42;100500.11;2154315;80;21006;-87
2021/08/24 05:19:47;;;;;;;8.10;6.75;;;;;;;13.95;92.36;100492.93;2168004;81;21037;-87
2021/08/24 05:22:49;;;;;;;7.12;6.40;;;;;;;13.95;92.30;100504.11;2171486;81;21049;-86
2021/08/24 05:25:50;;;;;;;8.08;6.62;;;;;;;13.96;92.24;100513.76;2169856;80;21011;-87
2021/08/24 05:28:51;;;;;;;11.88;7.53;;;;;;;13.95;92.31;100514.27;2166123;80;21010;-89
2021/08/24 05:31:52;;;;;;;10.05;7.90;;;;;;;13.97;92.21;100518.11;2148078;80;20977;-85
2021/08/24 05:34:53;;;;;;;8.93;7.97;;;;;;;13.99;92.16;100520.06;2137406;82;21014;-86
2021/08/24 05:37:55;;;;;;;9.28;8.13;;;;;;;13.99;92.00;100521.41;2143145;82;21551;-87
2021/08/24 05:40:57;;;;;;;10.63;7.72;;;;;;;14.01;92.05;100531.40;2146298;82;21505;-85
2021/08/24 05:43:58;;;;;;;9.08;7.33;;;;;;;14.01;91.94;100540.73;2165293;79;21575;-86
2021/08/24 05:46:59;;;;;;;10.13;8.00;;;;;;;14.00;92.03;100537.75;2151258;80;21048;-86
2021/08/24 05:50:00;;;;;;;8.63;7.72;;;;;;;14.00;91.93;100548.42;2131102;82;21081;-86
2021/08/24 05:53:01;;;;;;;8.88;7.37;;;;;;;14.00;91.89;100553.25;2132559;82;21552;-85
2021/08/24 05:56:12;;;;;;;8.45;7.35;;;;;;;14.00;91.86;100556.43;2132388;81;21098;-87
2021/08/24 05:59:13;;;;;;;11.33;7.78;;;;;;;13.99;91.76;100552.91;2124151;82;21474;-86
2021/08/24 06:02:14;;;;;;;11.12;7.72;;;;;;;14.01;91.64;100566.08;2132783;82;21612;-85
2021/08/24 06:05:16;;;;;;;9.10;7.03;;;;;;;14.01;91.65;100566.08;2126473;82;21007;-86
2021/08/24 06:08:17;;;;;;;9.40;7.85;;;;;;;14.01;91.61;100566.08;2133056;82;20988;-86
2021/08/24 06:11:32;;;;;;;8.93;6.95;;;;;;;14.02;91.58;100571.73;2135110;82;21007;-86
2021/08/24 06:14:34;;;;;;;10.32;7.58;;;;;;;14.03;91.40;100581.42;2141856;81;21090;-86
2021/08/24 06:17:35;;;;;;;10.53;7.08;;;;;;;14.06;91.28;100591.73;2131274;82;21097;-87
2021/08/24 06:20:36;;;;;;;7.78;6.95;;;;;;;14.04;91.24;100593.23;2128173;82;21019;-87
2021/08/24 06:23:38;;;;;;;9.85;6.85;;;;;;;14.05;91.26;100587.38;2125759;82;21719;-87
2021/08/24 06:26:39;;;;;;;8.80;6.42;;;;;;;14.07;91.24;100600.05;2127519;82;21481;-88
2021/08/24 06:29:40;;;;;;;7.85;6.55;;;;;;;14.09;91.02;100612.72;2134303;82;20975;-86
2021/08/24 06:32:51;;;;;;;12.85;7.12;;;;;;;14.09;91.01;100610.88;2139026;82;21453;-85
2021/08/24 06:35:52;;;;;;;9.03;7.60;;;;;;;14.11;91.12;100619.55;2129589;82;21015;-85
2021/08/24 06:38:54;;;;;;;8.95;7.75;;;;;;;14.13;91.01;100626.87;2129858;82;20998;-87
2021/08/24 06:41:55;;;;;;;8.35;7.50;;;;;;;14.17;90.95;100623.84;2128601;82;21067;-87
2021/08/24 06:44:56;;;;;;;8.30;7.40;;;;;;;14.18;91.01;100634.33;2131328;82;21548;-85
2021/08/24 06:47:57;;;;;;;8.18;7.37;;;;;;;14.21;91.03;100636.64;2148802;81;21037;-86
2021/08/24 06:50:59;;;;;;;9.30;8.40;;;;;;;14.22;90.81;100643.66;2164724;81;21010;-86
2021/08/24 06:54:02;;;;;;;9.85;8.85;;;;;;;14.25;90.60;100639.80;2174334;81;21045;-87
2021/08/24 06:57:05;;;;;;;8.70;7.72;;;;;;;14.26;90.72;100650.28;2168095;79;21856;-85
2021/08/24 07:00:14;;;;;;;11.20;8.70;;;;;;;14.32;90.51;100655.42;2166310;80;21041;-87
2021/08/24 07:03:16;;;;;;;10.65;8.58;;;;;;;14.35;90.51;100651.88;2170917;81;21041;-87
2021/08/24 07:06:17;;;;;;;8.98;8.10;;;;;;;14.43;90.40;100664.85;2161370;81;20996;-85
2021/08/24 07:09:19;;;;;;;10.82;8.05;;;;;;;14.48;90.33;100655.81;2156629;81;21022;-86
2021/08/24 07:12:20;;;;;;;8.98;7.78;;;;;;;14.53;89.90;100661.48;2177878;81;21535;-86
2021/08/24 07:15:23;;;;;;;8.75;7.47;;;;;;;14.57;89.64;100663.59;2165927;80;21018;-88
2021/08/24 07:18:24;;;;;;;7.75;6.85;;;;;;;14.57;89.38;100672.94;2169192;81;21081;-86
2021/08/24 07:21:27;;;;;;;9.90;7.60;;;;;;;14.54;88.94;100679.16;2173788;79;20959;-85
2021/08/24 07:24:28;;;;;;;8.73;7.62;;;;;;;14.50;89.27;100683.14;2168550;80;20998;-87
2021/08/24 07:27:29;;;;;;;10.13;7.08;;;;;;;14.54;89.40;100685.83;2160644;81;21025;-86
2021/08/24 07:30:30;;;;;;;10.63;7.28;;;;;;;14.54;89.13;100687.16;2165364;81;20958;-85
2021/08/24 07:33:31;;;;;;;8.53;7.00;;;;;;;14.52;89.08;100689.17;2170953;81;20989;-84
2021/08/24 07:36:32;;;;;;;7.33;6.62;;;;;;;14.55;89.13;100690.97;2166646;80;21654;-87
2021/08/24 07:39:34;;;;;;;7.62;6.80;;;;;;;14.52;88.36;100694.52;2160631;81;21009;-86
2021/08/24 07:42:36;;;;;;;7.50;5.08;;;;;;;14.43;88.35;100706.23;2171987;81;20997;-86
2021/08/24 07:45:37;;;;;;;10.70;6.10;;;;;;;14.37;88.45;100698.95;2176414;81;21447;-85
2021/08/24 07:48:38;;;;;;;7.03;5.53;;;;;;;14.31;88.04;100706.64;2144299;80;21055;-88
2021/08/24 07:51:39;;;;;;;7.03;5.85;;;;;;;14.29;88.29;100709.16;2141025;81;21032;-86
2021/08/24 07:54:41;;;;;;;6.85;5.47;;;;;;;14.31;88.16;100721.33;2147650;81;21041;-87
2021/08/24 07:57:42;;;;;;;7.78;5.72;;;;;;;14.25;87.91;100719.88;2144829;82;21023;-87
2021/08/24 08:00:43;;;;;;;7.12;5.40;;;;;;;14.20;87.71;100728.40;2146323;82;21028;-85
2021/08/24 08:03:44;;;;;;;6.42;5.53;;;;;;;14.15;87.70;100728.09;2135859;81;21542;-87
2021/08/24 08:06:45;;;;;;;9.78;6.47;;;;;;;14.11;87.80;100732.13;2151664;81;21005;-87
2021/08/24 08:09:46;;;;;;;9.03;5.85;;;;;;;14.12;87.90;100735.11;2135468;82;21026;-85
2021/08/24 08:12:48;;;;;;;11.57;6.28;;;;;;;14.08;87.63;100737.31;2120369;83;21464;-87
2021/08/24 08:15:49;;;;;;;11.93;6.00;;;;;;;14.07;87.60;100746.80;2127741;83;21527;-86
2021/08/24 08:18:50;;;;;;;8.48;5.25;;;;;;;14.03;87.75;100753.52;2118127;83;21342;-87
2021/08/24 08:21:51;;;;;;;11.35;6.25;;;;;;;13.95;87.82;100758.87;2119729;83;21532;-86
2021/08/24 08:24:52;;;;;;;9.75;6.40;;;;;;;13.90;87.90;100764.22;2134476;82;21512;-85
2021/08/24 08:27:53;;;;;;;10.58;6.40;;;;;;;13.92;88.19;100765.39;2150695;81;21014;-86
2021/08/24 08:30:55;;;;;;;10.55;5.72;;;;;;;13.97;88.07;100763.55;2129685;82;21596;-86
2021/08/24 08:33:56;;;;;;;8.78;6.42;;;;;;;13.92;87.88;100764.05;2158042;81;20963;-85
2021/08/24 08:36:57;;;;;;;10.28;8.03;;;;;;;13.94;88.09;100763.86;2140671;81;21023;-87
2021/08/24 08:39:58;;;;;;;8.68;7.05;;;;;;;13.95;87.84;100777.55;2147087;81;21019;-85
2021/08/24 08:43:08;;;;;;;8.73;7.40;;;;;;;13.99;88.05;100776.19;2157169;81;21037;-87
2021/08/24 08:46:45;;;;;;;10.70;7.42;;;;;;;14.03;88.11;100778.86;2146747;81;21090;-86
2021/08/24 08:50:27;;;;;;;10.60;7.87;;;;;;;14.03;87.67;100772.19;2147775;81;21529;-85
2021/08/24 08:53:55;;;;;;;14.00;8.73;;;;;;;14.00;87.55;100783.21;2148265;81;21060;-87
2021/08/24 08:57:10;;;;;;;8.58;7.45;;;;;;;13.97;87.58;100784.38;2136215;82;21483;-86
2021/08/24 09:00:20;;;;;;;10.55;7.80;;;;;;;13.98;87.53;100789.21;2120192;83;21042;-87
2021/08/24 09:04:11;;;;;;;11.30;8.33;;;;;;;14.00;87.63;100794.70;2121195;82;21079;-86
2021/08/24 09:07:42;;;;;;;15.32;8.28;;;;;;;14.03;87.56;100800.20;2148833;82;21010;-85
2021/08/24 09:10:46;;;;;;;;;;;;;;;14.02;87.28;100802.52;2150182;81;21037;-86
2021/08/24 09:13:52;;;;;;;10.18;8.05;;;;;;;13.99;86.53;100812.21;2145133;81;20125;-87
2021/08/24 09:16:59;;;;;;;10.60;7.95;;;;;;;13.94;86.61;100809.22;2135928;82;20990;-86
2021/08/24 09:20:32;;;;;;;10.88;7.60;;;;;;;13.93;86.74;100812.39;2142417;81;21013;-86
2021/08/24 09:23:34;;;;;;;8.05;7.22;;;;;;;13.94;86.82;100813.22;2146400;81;21533;-87
2021/08/24 09:26:55;;;;;;;8.38;6.80;;;;;;;14.01;86.88;100812.87;2164299;81;21020;-85
2021/08/24 09:29:57;;;;;;;7.85;6.33;;;;;;;14.05;86.75;100812.84;2143432;81;21570;-87
2021/08/24 09:33:05;;;;;;;8.80;6.58;;;;;;;14.10;86.40;100813.17;2154417;81;21028;-86
2021/08/24 09:36:07;;;;;;;7.55;5.58;;;;;;;14.12;86.23;100823.17;2142704;82;21864;-87
2021/08/24 09:39:09;;;;;;;8.28;6.72;;;;;;;14.15;86.20;100817.49;2144708;81;21037;-86
2021/08/24 09:42:11;;;;;;;9.95;6.33;;;;;;;14.16;86.21;100826.33;2143339;81;20979;-86
2021/08/24 09:45:26;;;;;;;7.37;5.87;;;;;;;14.22;85.55;100822.48;2151449;82;21051;-86
2021/08/24 09:48:47;;;;;;;7.87;5.20;;;;;;;14.34;85.73;100821.08;2142477;80;21026;-87
2021/08/24 09:51:59;;;;;;;;;;;;;;;14.50;85.46;100832.67;2154873;81;21073;-87
2021/08/24 09:55:10;;;;;;;8.00;5.78;;;;;;;14.58;83.41;100834.00;2150261;81;20425;-87
2021/08/24 09:58:22;;;;;;;5.73;4.33;;;;;;;14.74;83.84;100834.41;2149847;82;21035;-85
2021/08/24 10:01:23;;;;;;;8.65;4.62;;;;;;;15.10;83.73;100833.33;2133188;82;21662;-87
2021/08/24 10:04:25;;;;;;;7.40;4.83;;;;;;;15.22;81.78;100842.58;2141306;82;21034;-87
2021/08/24 10:07:41;;;;;;;6.50;4.20;;;;;;;15.28;80.39;100842.88;2147396;81;21662;-86
2021/08/24 10:10:42;;;;;;;8.20;4.50;;;;;;;15.35;81.76;100839.83;2149141;81;20961;-86
2021/08/24 10:13:46;;;;;;;13.55;4.35;;;;;;;15.35;78.67;100842.50;2152512;81;21507;-87
2021/08/24 10:16:50;;;;;;;8.05;4.45;;;;;;;15.38;79.28;100845.63;2152038;81;21016;-85
2021/08/24 10:19:52;;;;;;;11.45;4.22;;;;;;;15.41;79.31;100843.94;2157275;81;21041;-86
2021/08/24 10:22:54;;;;;;;5.33;3.72;;;;;;;15.51;79.54;100849.02;2160528;81;21067;-85
2021/08/24 10:25:59;;;;;;;11.20;4.40;;;;;;;15.48;77.76;100857.41;2135344;81;21517;-86
2021/08/24 10:29:09;;;;;;;4.90;3.87;;;;;;;15.43;78.02;100859.81;2104548;83;20987;-86
2021/08/24 10:32:13;;;;;;;8.08;3.95;;;;;;;15.32;77.73;100853.56;2150300;81;21041;-87
2021/08/24 10:35:28;;;;;;;8.15;3.80;;;;;;;15.24;77.11;100847.25;2139668;82;21037;-86
2021/08/24 10:38:47;;;;;;;5.78;3.60;;;;;;;15.22;77.08;100855.13;2144524;81;21083;-86
2021/08/24 10:42:06;;;;;;;10.88;3.92;;;;;;;15.27;77.47;100858.61;2147609;81;21021;-86
2021/08/24 10:45:34;;;;;;;5.70;3.50;;;;;;;15.31;77.17;100858.56;2139714;81;21034;-85
2021/08/24 10:48:36;;;;;;;7.97;3.75;;;;;;;15.38;76.95;100860.86;2167019;80;21062;-85
2021/08/24 10:52:04;;;;;;;11.08;4.62;;;;;;;15.47;76.81;100858.42;2147939;80;20992;-86
2021/08/24 10:55:34;;;;;;;6.03;3.90;;;;;;;15.65;76.85;100858.94;2171145;80;21049;-86
2021/08/24 10:58:58;;;;;;;4.78;3.17;;;;;;;16.00;76.89;100863.80;2112579;81;22158;-86
2021/08/24 11:02:17;;;;;;;4.83;3.37;;;;;;;16.30;74.96;100865.45;2145808;80;21068;-84
2021/08/24 11:06:03;;;;;;;6.70;3.72;;;;;;;16.43;72.65;100858.60;2120151;81;21487;-86
2021/08/24 11:09:27;;;;;;;6.75;3.52;;;;;;;16.44;73.18;100857.57;2188054;80;21509;-85
2021/08/24 11:12:58;;;;;;;6.60;3.15;;;;;;;16.53;73.70;100859.98;2170358;80;21049;-85
2021/08/24 11:16:22;;;;;;;6.90;3.25;;;;;;;16.69;70.96;100859.42;2168632;80;21060;-84
2021/08/24 11:19:35;;;;;;;4.92;3.02;;;;;;;16.77;72.06;100870.87;2167556;80;21004;-86
2021/08/24 11:22:56;;;;;;;5.33;3.10;;;;;;;16.75;69.79;100876.93;2155268;80;21024;-86
2021/08/24 11:26:06;;;;;;;4.55;2.90;;;;;;;16.71;68.98;100874.29;2124728;82;21007;-85
2021/08/24 11:29:41;;;;;;;10.90;3.35;;;;;;;16.85;69.38;100872.62;2148725;81;21045;-85
2021/08/24 11:32:46;;;;;;;5.55;3.40;;;;;;;17.03;67.67;100871.70;2152212;81;21042;-86
2021/08/24 11:36:01;;;;;;;5.37;2.67;;;;;;;17.25;68.38;100879.21;2133068;82;21062;-85
2021/08/24 11:39:10;;;;;;;4.17;2.67;;;;;;;17.55;68.88;100885.78;2132279;82;20999;-86
2021/08/24 11:42:34;;;;;;;5.00;2.70;;;;;;;17.66;67.47;100881.74;2147095;80;21521;-85
2021/08/24 11:45:53;;;;;;;7.58;3.20;;;;;;;17.83;68.48;100891.70;2168331;80;21675;-85
2021/08/24 11:49:09;;;;;;;6.75;3.00;;;;;;;18.17;68.31;100892.23;2162611;80;21078;-85
2021/08/24 11:52:31;;;;;;;4.28;2.37;;;;;;;18.05;65.57;100891.96;2178906;80;21599;-85
2021/08/24 11:55:39;;;;;;;7.12;2.58;;;;;;;17.91;64.46;100900.44;2142490;80;21316;-85
2021/08/24 11:58:49;;;;;;;5.15;2.33;;;;;;;18.12;63.39;100902.22;2188221;80;21045;-86
2021/08/24 12:01:52;;;;;;;8.73;2.83;;;;;;;18.30;63.69;100903.06;2192554;79;21057;-85
2021/08/24 12:04:55;;;;;;;3.60;2.30;;;;;;;18.18;61.26;100903.28;2160600;80;22586;-86
2021/08/24 12:08:07;;;;;;;4.33;2.40;;;;;;;18.37;64.08;100901.74;2183094;80;21059;-86
2021/08/24 12:11:22;;;;;;;4.22;2.20;;;;;;;18.48;61.16;100885.58;2164779;80;20984;-86
2021/08/24 12:14:36;;;;;;;4.58;2.85;;;;;;;18.58;62.21;100899.45;2170791;80;21110;-84
2021/08/24 12:17:38;;;;;;;4.80;2.87;;;;;;;18.72;61.63;100901.16;2148934;80;21005;-86
2021/08/24 12:20:50;;;;;;;3.12;2.30;;;;;;;18.74;60.25;100903.17;2185757;79;21030;-87
2021/08/24 12:23:51;;;;;;;4.60;2.02;;;;;;;18.71;61.03;100910.27;2183869;80;21500;-87
2021/08/24 12:27:10;;;;;;;6.90;2.08;;;;;;;18.89;60.79;100907.56;2170908;80;21060;-85
2021/08/24 12:30:28;;;;;;;2.58;2.20;;;;;;;19.10;61.61;100906.08;2179380;80;21508;-86
2021/08/24 12:33:37;;;;;;;2.95;1.80;;;;;;;19.28;60.65;100910.03;2179575;80;21012;-85
2021/08/24 12:36:46;;;;;;;4.50;1.98;;;;;;;19.10;60.09;100915.48;2150736;80;21060;-87
2021/08/24 12:39:53;;;;;;;5.63;2.00;;;;;;;18.98;60.50;100913.91;2180242;80;21012;-86
2021/08/24 12:43:20;;;;;;;8.00;2.10;;;;;;;18.77;57.92;100912.70;2168576;80;21022;-85
2021/08/24 12:46:24;;;;;;;5.10;2.08;;;;;;;18.49;58.89;100916.78;2180954;80;21027;-85
2021/08/24 12:49:30;;;;;;;5.97;2.22;;;;;;;18.35;58.31;100908.64;2134849;81;21437;-84
2021/08/24 12:52:44;;;;;;;2.58;1.62;;;;;;;18.20;57.31;100917.88;2083390;84;21020;-84
2021/08/24 12:55:45;;;;;;;5.62;2.20;;;;;;;18.03;58.23;100913.32;2098782;80;21104;-86
2021/08/24 12:58:51;;;;;;;3.05;1.90;;;;;;;17.95;57.87;100921.52;2152945;81;21022;-88
2021/08/24 13:02:31;;;;;;;3.42;2.22;;;;;;;17.96;57.82;100912.44;2149715;81;21055;-86
2021/08/24 13:05:35;;;;;;;2.27;1.70;;;;;;;18.14;58.86;100900.69;2141078;81;21009;-86
2021/08/24 13:08:36;;;;;;;2.37;1.87;;;;;;;18.42;58.95;100909.22;2142031;81;21042;-87
2021/08/24 13:11:41;;;;;;;2.45;1.80;;;;;;;18.61;58.45;100908.45;2156296;82;21083;-87
2021/08/24 13:14:57;;;;;;;7.25;2.08;;;;;;;18.87;58.08;100902.92;2151208;82;21003;-85
2021/08/24 13:18:25;;;;;;;4.17;1.90;;;;;;;18.82;54.77;100904.86;2142284;81;21021;-85
2021/08/24 13:21:44;;;;;;;3.83;2.00;;;;;;;18.55;55.57;100905.23;2133563;82;21521;-86
2021/08/24 13:24:49;;;;;;;2.90;1.50;;;;;;;18.29;56.91;100898.70;2133314;82;21077;-86
2021/08/24 13:27:55;;;;;;;2.22;1.92;;;;;;;18.44;57.69;100906.62;2143310;81;21015;-85
2021/08/24 13:31:02;;;;;;;4.25;1.85;;;;;;;18.81;56.16;100902.69;2136374;81;21066;-86
2021/08/24 13:34:29;;;;;;;3.42;2.22;;;;;;;19.17;54.33;100900.70;2148293;81;21078;-85
2021/08/24 13:37:43;;;;;;;4.30;2.35;;;;;;;19.14;54.51;100909.17;2144652;81;21498;-85
2021/08/24 13:40:46;;;;;;;2.10;1.50;;;;;;;18.81;52.71;100906.72;2146936;81;20972;-85
2021/08/24 13:43:53;;;;;;;2.95;1.75;;;;;;;18.57;53.86;100904.00;2146903;80;21051;-86
2021/08/24 13:47:05;;;;;;;4.03;1.60;;;;;;;18.56;52.96;100911.77;2140513;82;21051;-86
2021/08/24 13:50:09;;;;;;;3.20;1.70;;;;;;;18.46;50.87;100913.16;2152702;80;21006;-85
2021/08/24 13:53:20;;;;;;;4.50;1.92;;;;;;;18.37;53.02;100909.28;2133522;81;21055;-86
2021/08/24 13:56:35;;;;;;;4.50;1.98;;;;;;;18.38;52.43;100910.11;2147773;82;20993;-87
2021/08/24 13:59:54;;;;;;;3.42;1.90;;;;;;;18.22;51.48;100914.48;2146878;81;21042;-86
2021/08/24 14:02:55;;;;;;;2.45;1.80;;;;;;;18.14;53.68;100918.14;2148884;81;20997;-86
2021/08/24 14:06:00;;;;;;;3.30;1.60;;;;;;;18.09;52.83;100920.59;2150028;81;20989;-85
2021/08/24 14:09:23;;;;;;;3.45;1.85;;;;;;;18.22;54.31;100915.83;2141013;82;21611;-86
2021/08/24 14:12:35;;;;;;;3.83;1.90;;;;;;;18.50;55.25;100921.11;2143243;81;21019;-86
2021/08/24 14:15:40;;;;;;;4.72;2.05;;;;;;;18.50;50.13;100922.46;2145995;82;21025;-87
2021/08/24 14:18:42;;;;;;;3.98;2.17;;;;;;;18.40;50.86;100924.18;2141314;81;20998;-85
2021/08/24 14:21:44;;;;;;;6.20;2.25;;;;;;;18.37;51.99;100917.86;2142267;81;21020;-86
2021/08/24 14:24:45;;;;;;;7.65;2.58;;;;;;;18.30;52.31;100927.73;2155586;82;21045;-86
2021/08/24 14:27:48;;;;;;;4.90;2.70;;;;;;;18.30;50.84;100925.89;2148029;82;21051;-84
2021/08/24 14:30:51;;;;;;;3.20;2.42;;;;;;;18.35;52.45;100924.77;2147649;81;21024;-86
2021/08/24 14:33:58;;;;;;;5.20;2.87;;;;;;;18.29;52.00;100923.39;2140829;82;21020;-86